sensor_id;sensor_type;location;lat;lon;timestamp;temperature;humidity
14097;DHT22;7125;48.106;11.544;2023-12-07T00:01:34;0.80;99.90
14097;DHT22;7125;48.106;11.544;2023-12-07T00:04:03;0.80;99.90
14097;DHT22;7125;48.106;11.544;2023-12-07T00:06:31;0.80;99.90
14097;DHT22;7125;48.106;11.544;2023-12-07T00:09:00;0.70;99.90
14097;DHT22;7125;48.106;11.544;2023-12-07T00:11:31;0.70;99.90
14097;DHT22;7125;48.106;11.544;2023-12-07T00:14:11;0.70;99.90
14097;DHT22;7125;48.106;11.544;2023-12-07T00:16:58;0.70;99.90
14097;DHT22;7125;48.106;11.544;2023-12-07T00:19:34;0.60;99.90
14097;DHT22;7125;48.106;11.544;2023-12-07T00:22:11;0.60;99.90
14097;DHT22;7125;48.106;11.544;2023-12-07T00:24:42;0.60;99.90
14097;DHT22;7125;48.106;11.544;2023-12-07T00:27:12;0.60;99.90
14097;DHT22;7125;48.106;11.544;2023-12-07T00:29:40;0.60;99.90
14097;DHT22;7125;48.106;11.544;2023-12-07T00:32:17;0.50;99.90
14097;DHT22;7125;48.106;11.544;2023-12-07T00:34:46;0.50;99.90
14097;DHT22;7125;48.106;11.544;2023-12-07T00:37:15;0.40;99.90
14097;DHT22;7125;48.106;11.544;2023-12-07T00:39:43;0.40;99.90
14097;DHT22;7125;48.106;11.544;2023-12-07T00:42:13;0.40;99.90
14097;DHT22;7125;48.106;11.544;2023-12-07T00:44:42;0.30;99.90
14097;DHT22;7125;48.106;11.544;2023-12-07T00:47:11;0.30;99.90
14097;DHT22;7125;48.106;11.544;2023-12-07T00:49:40;0.20;99.90
14097;DHT22;7125;48.106;11.544;2023-12-07T00:52:09;0.20;99.90
14097;DHT22;7125;48.106;11.544;2023-12-07T00:54:36;0.20;99.90
14097;DHT22;7125;48.106;11.544;2023-12-07T00:57:06;0.20;99.90
14097;DHT22;7125;48.106;11.544;2023-12-07T00:59:34;0.10;99.90
14097;DHT22;7125;48.106;11.544;2023-12-07T01:02:02;0.10;99.90
14097;DHT22;7125;48.106;11.544;2023-12-07T01:04:32;0.00;99.90
14097;DHT22;7125;48.106;11.544;2023-12-07T01:06:59;0.00;99.90
14097;DHT22;7125;48.106;11.544;2023-12-07T01:09:27;0.00;99.90
14097;DHT22;7125;48.106;11.544;2023-12-07T01:11:54;0.00;99.90
14097;DHT22;7125;48.106;11.544;2023-12-07T01:14:21;0.00;99.90
14097;DHT22;7125;48.106;11.544;2023-12-07T01:16:49;0.00;99.90
14097;DHT22;7125;48.106;11.544;2023-12-07T01:19:16;0.00;99.90
14097;DHT22;7125;48.106;11.544;2023-12-07T01:21:43;-0.10;99.90
14097;DHT22;7125;48.106;11.544;2023-12-07T01:24:11;-0.10;99.90
14097;DHT22;7125;48.106;11.544;2023-12-07T01:26:38;-0.10;99.90
14097;DHT22;7125;48.106;11.544;2023-12-07T01:29:05;-0.10;99.90
14097;DHT22;7125;48.106;11.544;2023-12-07T01:31:32;-0.20;99.90
14097;DHT22;7125;48.106;11.544;2023-12-07T01:34:01;-0.20;99.90
14097;DHT22;7125;48.106;11.544;2023-12-07T01:36:28;-0.20;99.90
14097;DHT22;7125;48.106;11.544;2023-12-07T01:38:55;-0.30;99.90
14097;DHT22;7125;48.106;11.544;2023-12-07T01:41:22;-0.20;99.90
14097;DHT22;7125;48.106;11.544;2023-12-07T01:43:49;-0.20;99.90
14097;DHT22;7125;48.106;11.544;2023-12-07T01:46:17;-0.30;99.90
14097;DHT22;7125;48.106;11.544;2023-12-07T01:48:44;-0.30;99.90
14097;DHT22;7125;48.106;11.544;2023-12-07T01:51:17;-0.30;99.90
14097;DHT22;7125;48.106;11.544;2023-12-07T01:53:46;-0.30;99.90
14097;DHT22;7125;48.106;11.544;2023-12-07T01:56:14;-0.30;99.90
14097;DHT22;7125;48.106;11.544;2023-12-07T01:58:41;-0.40;99.90
14097;DHT22;7125;48.106;11.544;2023-12-07T02:01:09;-0.40;99.90
14097;DHT22;7125;48.106;11.544;2023-12-07T02:03:39;-0.40;99.90
14097;DHT22;7125;48.106;11.544;2023-12-07T02:06:07;-0.40;99.90
14097;DHT22;7125;48.106;11.544;2023-12-07T02:08:37;-0.50;99.90
14097;DHT22;7125;48.106;11.544;2023-12-07T02:11:07;-0.50;99.90
14097;DHT22;7125;48.106;11.544;2023-12-07T02:13:35;-0.50;99.90
14097;DHT22;7125;48.106;11.544;2023-12-07T02:16:07;-0.50;99.90
14097;DHT22;7125;48.106;11.544;2023-12-07T02:18:40;-0.50;99.90
14097;DHT22;7125;48.106;11.544;2023-12-07T02:21:13;-0.60;99.90
14097;DHT22;7125;48.106;11.544;2023-12-07T02:23:42;-0.60;99.90
14097;DHT22;7125;48.106;11.544;2023-12-07T02:26:49;-0.60;99.90
14097;DHT22;7125;48.106;11.544;2023-12-07T02:29:16;-0.60;99.90
14097;DHT22;7125;48.106;11.544;2023-12-07T02:31:43;-0.60;99.90
14097;DHT22;7125;48.106;11.544;2023-12-07T02:34:10;-0.60;99.90
14097;DHT22;7125;48.106;11.544;2023-12-07T02:36:39;-0.50;99.90
14097;DHT22;7125;48.106;11.544;2023-12-07T02:39:07;-0.50;99.90
14097;DHT22;7125;48.106;11.544;2023-12-07T02:41:39;-0.50;99.90
14097;DHT22;7125;48.106;11.544;2023-12-07T02:44:09;-0.50;99.90
14097;DHT22;7125;48.106;11.544;2023-12-07T02:46:37;-0.40;99.90
14097;DHT22;7125;48.106;11.544;2023-12-07T02:49:04;-0.40;99.90
14097;DHT22;7125;48.106;11.544;2023-12-07T02:51:31;-0.30;99.90
14097;DHT22;7125;48.106;11.544;2023-12-07T02:53:58;-0.40;99.90
14097;DHT22;7125;48.106;11.544;2023-12-07T02:56:25;-0.30;99.90
14097;DHT22;7125;48.106;11.544;2023-12-07T02:58:52;-0.30;99.90
14097;DHT22;7125;48.106;11.544;2023-12-07T03:01:21;-0.30;99.90
14097;DHT22;7125;48.106;11.544;2023-12-07T03:03:48;-0.40;99.90
14097;DHT22;7125;48.106;11.544;2023-12-07T03:06:15;-0.40;99.90
14097;DHT22;7125;48.106;11.544;2023-12-07T03:08:42;-0.50;99.90
14097;DHT22;7125;48.106;11.544;2023-12-07T03:11:09;-0.50;99.90
14097;DHT22;7125;48.106;11.544;2023-12-07T03:13:37;-0.40;99.90
14097;DHT22;7125;48.106;11.544;2023-12-07T03:16:07;-0.40;99.90
14097;DHT22;7125;48.106;11.544;2023-12-07T03:18:36;-0.40;99.90
14097;DHT22;7125;48.106;11.544;2023-12-07T03:21:03;-0.40;99.90
14097;DHT22;7125;48.106;11.544;2023-12-07T03:23:31;-0.40;99.90
14097;DHT22;7125;48.106;11.544;2023-12-07T03:25:58;-0.30;99.90
14097;DHT22;7125;48.106;11.544;2023-12-07T03:28:25;-0.30;99.90
14097;DHT22;7125;48.106;11.544;2023-12-07T03:30:51;-0.20;99.90
14097;DHT22;7125;48.106;11.544;2023-12-07T03:33:18;-0.20;99.90
14097;DHT22;7125;48.106;11.544;2023-12-07T03:35:46;-0.10;99.90
14097;DHT22;7125;48.106;11.544;2023-12-07T03:38:14;-0.10;99.90
14097;DHT22;7125;48.106;11.544;2023-12-07T03:40:41;-0.10;99.90
14097;DHT22;7125;48.106;11.544;2023-12-07T03:43:08;-0.10;99.90
14097;DHT22;7125;48.106;11.544;2023-12-07T03:45:35;0.00;99.90
14097;DHT22;7125;48.106;11.544;2023-12-07T03:48:02;0.00;99.90
14097;DHT22;7125;48.106;11.544;2023-12-07T03:50:30;-0.10;99.90
14097;DHT22;7125;48.106;11.544;2023-12-07T03:52:58;0.00;99.90
14097;DHT22;7125;48.106;11.544;2023-12-07T03:55:25;-0.10;99.90
14097;DHT22;7125;48.106;11.544;2023-12-07T03:57:52;0.00;99.90
14097;DHT22;7125;48.106;11.544;2023-12-07T04:00:19;-0.10;99.90
14097;DHT22;7125;48.106;11.544;2023-12-07T04:02:47;-0.10;99.90
14097;DHT22;7125;48.106;11.544;2023-12-07T04:05:14;-0.10;99.90
14097;DHT22;7125;48.106;11.544;2023-12-07T04:07:41;-0.10;99.90
14097;DHT22;7125;48.106;11.544;2023-12-07T04:10:10;-0.10;99.90
14097;DHT22;7125;48.106;11.544;2023-12-07T04:12:38;-0.10;99.90
14097;DHT22;7125;48.106;11.544;2023-12-07T04:15:06;-0.10;99.90
14097;DHT22;7125;48.106;11.544;2023-12-07T04:17:33;-0.10;99.90
14097;DHT22;7125;48.106;11.544;2023-12-07T04:20:00;-0.20;99.90
14097;DHT22;7125;48.106;11.544;2023-12-07T04:22:27;-0.30;99.90
14097;DHT22;7125;48.106;11.544;2023-12-07T04:24:54;-0.30;99.90
14097;DHT22;7125;48.106;11.544;2023-12-07T04:27:23;-0.40;99.90
14097;DHT22;7125;48.106;11.544;2023-12-07T04:29:50;-0.40;99.90
14097;DHT22;7125;48.106;11.544;2023-12-07T04:32:17;-0.50;99.90
14097;DHT22;7125;48.106;11.544;2023-12-07T04:34:44;-0.60;99.90
14097;DHT22;7125;48.106;11.544;2023-12-07T04:37:11;-0.60;99.90
14097;DHT22;7125;48.106;11.544;2023-12-07T04:39:38;-0.70;99.90
14097;DHT22;7125;48.106;11.544;2023-12-07T04:42:05;-0.70;99.90
14097;DHT22;7125;48.106;11.544;2023-12-07T04:44:33;-0.80;99.90
14097;DHT22;7125;48.106;11.544;2023-12-07T04:47:00;-0.80;99.90
14097;DHT22;7125;48.106;11.544;2023-12-07T04:49:28;-0.80;99.90
14097;DHT22;7125;48.106;11.544;2023-12-07T04:51:55;-0.70;99.90
14097;DHT22;7125;48.106;11.544;2023-12-07T04:54:22;-0.70;99.90
14097;DHT22;7125;48.106;11.544;2023-12-07T04:56:49;-0.70;99.90
14097;DHT22;7125;48.106;11.544;2023-12-07T04:59:16;-0.70;99.90
14097;DHT22;7125;48.106;11.544;2023-12-07T05:01:44;-0.60;99.90
14097;DHT22;7125;48.106;11.544;2023-12-07T05:04:12;-0.50;99.90
14097;DHT22;7125;48.106;11.544;2023-12-07T05:06:39;-0.40;99.90
14097;DHT22;7125;48.106;11.544;2023-12-07T05:09:06;-0.40;99.90
14097;DHT22;7125;48.106;11.544;2023-12-07T05:11:35;-0.40;99.90
14097;DHT22;7125;48.106;11.544;2023-12-07T05:14:03;-0.40;99.90
14097;DHT22;7125;48.106;11.544;2023-12-07T05:16:30;-0.40;99.90
14097;DHT22;7125;48.106;11.544;2023-12-07T05:18:58;-0.50;99.90
14097;DHT22;7125;48.106;11.544;2023-12-07T05:21:25;-0.40;99.90
14097;DHT22;7125;48.106;11.544;2023-12-07T05:23:52;-0.50;99.90
14097;DHT22;7125;48.106;11.544;2023-12-07T05:26:20;-0.50;99.90
14097;DHT22;7125;48.106;11.544;2023-12-07T05:28:47;-0.50;99.90
14097;DHT22;7125;48.106;11.544;2023-12-07T05:31:16;-0.60;99.90
14097;DHT22;7125;48.106;11.544;2023-12-07T05:33:43;-0.50;99.90
14097;DHT22;7125;48.106;11.544;2023-12-07T05:36:12;-0.50;99.90
14097;DHT22;7125;48.106;11.544;2023-12-07T05:38:39;-0.50;99.90
14097;DHT22;7125;48.106;11.544;2023-12-07T05:41:06;-0.60;99.90
14097;DHT22;7125;48.106;11.544;2023-12-07T05:43:33;-0.60;99.90
14097;DHT22;7125;48.106;11.544;2023-12-07T05:46:00;-0.60;99.90
14097;DHT22;7125;48.106;11.544;2023-12-07T05:48:27;-0.70;99.90
14097;DHT22;7125;48.106;11.544;2023-12-07T05:50:54;-0.80;99.90
14097;DHT22;7125;48.106;11.544;2023-12-07T05:53:23;-0.90;99.90
14097;DHT22;7125;48.106;11.544;2023-12-07T05:55:50;-0.90;99.90
14097;DHT22;7125;48.106;11.544;2023-12-07T05:58:17;-1.00;99.90
14097;DHT22;7125;48.106;11.544;2023-12-07T06:00:44;-1.10;99.90
14097;DHT22;7125;48.106;11.544;2023-12-07T06:03:12;-1.10;99.90
14097;DHT22;7125;48.106;11.544;2023-12-07T06:05:40;-1.20;99.90
14097;DHT22;7125;48.106;11.544;2023-12-07T06:08:08;-1.30;99.90
14097;DHT22;7125;48.106;11.544;2023-12-07T06:10:36;-1.40;99.90
14097;DHT22;7125;48.106;11.544;2023-12-07T06:13:04;-1.40;99.90
14097;DHT22;7125;48.106;11.544;2023-12-07T06:15:31;-1.50;99.90
14097;DHT22;7125;48.106;11.544;2023-12-07T06:17:58;-1.50;99.90
14097;DHT22;7125;48.106;11.544;2023-12-07T06:20:25;-1.60;99.90
14097;DHT22;7125;48.106;11.544;2023-12-07T06:22:52;-1.60;99.90
14097;DHT22;7125;48.106;11.544;2023-12-07T06:25:20;-1.70;99.90
14097;DHT22;7125;48.106;11.544;2023-12-07T06:27:50;-1.70;99.90
14097;DHT22;7125;48.106;11.544;2023-12-07T06:30:18;-1.80;99.90
14097;DHT22;7125;48.106;11.544;2023-12-07T06:32:47;-1.80;99.90
14097;DHT22;7125;48.106;11.544;2023-12-07T06:35:14;-1.80;99.90
14097;DHT22;7125;48.106;11.544;2023-12-07T06:37:42;-1.80;99.90
14097;DHT22;7125;48.106;11.544;2023-12-07T06:40:09;-1.80;99.90
14097;DHT22;7125;48.106;11.544;2023-12-07T06:42:37;-1.90;99.90
14097;DHT22;7125;48.106;11.544;2023-12-07T06:45:06;-1.80;99.90
14097;DHT22;7125;48.106;11.544;2023-12-07T06:47:36;-1.90;99.90
14097;DHT22;7125;48.106;11.544;2023-12-07T06:50:05;-1.90;99.90
14097;DHT22;7125;48.106;11.544;2023-12-07T06:52:34;-1.90;99.90
14097;DHT22;7125;48.106;11.544;2023-12-07T06:55:01;-1.90;99.90
14097;DHT22;7125;48.106;11.544;2023-12-07T06:57:28;-1.90;99.90
14097;DHT22;7125;48.106;11.544;2023-12-07T06:59:55;-1.90;99.90
14097;DHT22;7125;48.106;11.544;2023-12-07T07:02:24;-2.00;99.90
14097;DHT22;7125;48.106;11.544;2023-12-07T07:04:51;-2.00;99.90
14097;DHT22;7125;48.106;11.544;2023-12-07T07:07:18;-2.00;99.90
14097;DHT22;7125;48.106;11.544;2023-12-07T07:09:45;-2.00;99.90
14097;DHT22;7125;48.106;11.544;2023-12-07T07:12:12;-1.90;99.90
14097;DHT22;7125;48.106;11.544;2023-12-07T07:14:40;-1.90;99.90
14097;DHT22;7125;48.106;11.544;2023-12-07T07:17:07;-1.90;99.90
14097;DHT22;7125;48.106;11.544;2023-12-07T07:19:35;-1.90;99.90
14097;DHT22;7125;48.106;11.544;2023-12-07T07:22:03;-1.90;99.90
14097;DHT22;7125;48.106;11.544;2023-12-07T07:24:30;-1.90;99.90
14097;DHT22;7125;48.106;11.544;2023-12-07T07:26:57;-1.90;99.90
14097;DHT22;7125;48.106;11.544;2023-12-07T07:29:24;-1.90;99.90
14097;DHT22;7125;48.106;11.544;2023-12-07T07:31:51;-1.80;99.90
14097;DHT22;7125;48.106;11.544;2023-12-07T07:34:19;-1.90;99.90
14097;DHT22;7125;48.106;11.544;2023-12-07T07:36:49;-1.80;99.90
14097;DHT22;7125;48.106;11.544;2023-12-07T07:39:16;-1.80;99.90
14097;DHT22;7125;48.106;11.544;2023-12-07T07:41:44;-1.80;99.90
14097;DHT22;7125;48.106;11.544;2023-12-07T07:44:11;-1.70;99.90
14097;DHT22;7125;48.106;11.544;2023-12-07T07:46:40;-1.70;99.90
14097;DHT22;7125;48.106;11.544;2023-12-07T07:49:07;-1.70;99.90
14097;DHT22;7125;48.106;11.544;2023-12-07T07:51:35;-1.60;99.90
14097;DHT22;7125;48.106;11.544;2023-12-07T07:54:03;-1.60;99.90
14097;DHT22;7125;48.106;11.544;2023-12-07T07:56:31;-1.50;99.90
14097;DHT22;7125;48.106;11.544;2023-12-07T07:58:58;-1.50;99.90
14097;DHT22;7125;48.106;11.544;2023-12-07T08:01:27;-1.40;99.90
14097;DHT22;7125;48.106;11.544;2023-12-07T08:03:54;-1.40;99.90
14097;DHT22;7125;48.106;11.544;2023-12-07T08:06:21;-1.30;99.90
14097;DHT22;7125;48.106;11.544;2023-12-07T08:08:48;-1.30;99.90
14097;DHT22;7125;48.106;11.544;2023-12-07T08:11:18;-1.20;99.90
14097;DHT22;7125;48.106;11.544;2023-12-07T08:13:46;-1.20;99.90
14097;DHT22;7125;48.106;11.544;2023-12-07T08:16:13;-1.10;99.90
14097;DHT22;7125;48.106;11.544;2023-12-07T08:18:41;-1.10;99.90
14097;DHT22;7125;48.106;11.544;2023-12-07T08:21:08;-1.00;99.90
14097;DHT22;7125;48.106;11.544;2023-12-07T08:23:35;-0.90;99.90
14097;DHT22;7125;48.106;11.544;2023-12-07T08:26:03;-0.90;99.90
14097;DHT22;7125;48.106;11.544;2023-12-07T08:28:31;-0.80;99.90
14097;DHT22;7125;48.106;11.544;2023-12-07T08:30:58;-0.70;99.90
14097;DHT22;7125;48.106;11.544;2023-12-07T08:33:26;-0.70;99.90
14097;DHT22;7125;48.106;11.544;2023-12-07T08:35:53;-0.70;99.90
14097;DHT22;7125;48.106;11.544;2023-12-07T08:38:22;-0.60;99.90
14097;DHT22;7125;48.106;11.544;2023-12-07T08:40:49;-0.60;99.90
14097;DHT22;7125;48.106;11.544;2023-12-07T08:43:19;-0.60;99.90
14097;DHT22;7125;48.106;11.544;2023-12-07T08:45:48;-0.60;99.90
14097;DHT22;7125;48.106;11.544;2023-12-07T08:48:15;-0.50;99.90
14097;DHT22;7125;48.106;11.544;2023-12-07T08:50:42;-0.50;99.90
14097;DHT22;7125;48.106;11.544;2023-12-07T08:53:09;-0.50;99.90
14097;DHT22;7125;48.106;11.544;2023-12-07T08:55:36;-0.40;99.90
14097;DHT22;7125;48.106;11.544;2023-12-07T08:58:04;-0.40;99.90
14097;DHT22;7125;48.106;11.544;2023-12-07T09:00:31;-0.30;99.90
14097;DHT22;7125;48.106;11.544;2023-12-07T09:03:00;-0.30;99.90
14097;DHT22;7125;48.106;11.544;2023-12-07T09:05:28;-0.20;99.90
14097;DHT22;7125;48.106;11.544;2023-12-07T09:07:55;-0.20;99.90
14097;DHT22;7125;48.106;11.544;2023-12-07T09:10:23;-0.10;99.90
14097;DHT22;7125;48.106;11.544;2023-12-07T09:12:50;-0.10;99.90
14097;DHT22;7125;48.106;11.544;2023-12-07T09:15:17;0.00;99.90
14097;DHT22;7125;48.106;11.544;2023-12-07T09:17:44;0.10;99.90
14097;DHT22;7125;48.106;11.544;2023-12-07T09:20:13;0.10;99.90
14097;DHT22;7125;48.106;11.544;2023-12-07T09:22:41;0.20;99.90
14097;DHT22;7125;48.106;11.544;2023-12-07T09:25:09;0.30;99.90
14097;DHT22;7125;48.106;11.544;2023-12-07T09:27:37;0.30;99.90
14097;DHT22;7125;48.106;11.544;2023-12-07T09:30:06;0.40;99.90
14097;DHT22;7125;48.106;11.544;2023-12-07T09:32:37;0.40;99.90
14097;DHT22;7125;48.106;11.544;2023-12-07T09:35:05;0.50;99.90
14097;DHT22;7125;48.106;11.544;2023-12-07T09:37:35;0.50;99.90
14097;DHT22;7125;48.106;11.544;2023-12-07T09:40:03;0.60;99.90
14097;DHT22;7125;48.106;11.544;2023-12-07T09:42:31;0.70;99.90
14097;DHT22;7125;48.106;11.544;2023-12-07T09:44:59;0.90;99.90
14097;DHT22;7125;48.106;11.544;2023-12-07T09:47:28;0.90;99.90
14097;DHT22;7125;48.106;11.544;2023-12-07T09:49:58;0.90;99.90
14097;DHT22;7125;48.106;11.544;2023-12-07T09:52:25;1.00;99.90
14097;DHT22;7125;48.106;11.544;2023-12-07T09:54:55;1.00;99.90
14097;DHT22;7125;48.106;11.544;2023-12-07T09:57:24;0.90;99.90
14097;DHT22;7125;48.106;11.544;2023-12-07T09:59:51;0.90;99.90
14097;DHT22;7125;48.106;11.544;2023-12-07T10:02:19;0.90;99.90
14097;DHT22;7125;48.106;11.544;2023-12-07T10:04:47;1.00;99.90
14097;DHT22;7125;48.106;11.544;2023-12-07T10:07:14;1.00;99.90
14097;DHT22;7125;48.106;11.544;2023-12-07T10:09:42;1.00;99.90
14097;DHT22;7125;48.106;11.544;2023-12-07T10:12:11;1.00;99.90
14097;DHT22;7125;48.106;11.544;2023-12-07T10:14:39;1.10;99.90
14097;DHT22;7125;48.106;11.544;2023-12-07T10:17:06;1.10;99.90
14097;DHT22;7125;48.106;11.544;2023-12-07T10:19:33;1.10;99.90
14097;DHT22;7125;48.106;11.544;2023-12-07T10:22:00;1.20;99.90
14097;DHT22;7125;48.106;11.544;2023-12-07T10:24:28;1.30;99.90
14097;DHT22;7125;48.106;11.544;2023-12-07T10:26:56;1.40;99.90
14097;DHT22;7125;48.106;11.544;2023-12-07T10:29:28;1.40;99.90
14097;DHT22;7125;48.106;11.544;2023-12-07T10:32:00;1.40;99.90
14097;DHT22;7125;48.106;11.544;2023-12-07T10:34:27;1.50;99.90
14097;DHT22;7125;48.106;11.544;2023-12-07T10:36:54;1.50;99.90
14097;DHT22;7125;48.106;11.544;2023-12-07T10:39:23;1.60;99.90
14097;DHT22;7125;48.106;11.544;2023-12-07T10:41:52;1.60;99.90
14097;DHT22;7125;48.106;11.544;2023-12-07T10:44:25;1.60;99.90
14097;DHT22;7125;48.106;11.544;2023-12-07T10:46:54;1.60;99.90
14097;DHT22;7125;48.106;11.544;2023-12-07T10:49:25;1.60;99.90
14097;DHT22;7125;48.106;11.544;2023-12-07T10:51:59;1.70;99.90
14097;DHT22;7125;48.106;11.544;2023-12-07T10:54:34;1.80;99.90
14097;DHT22;7125;48.106;11.544;2023-12-07T10:57:06;1.80;99.90
14097;DHT22;7125;48.106;11.544;2023-12-07T10:59:36;1.70;99.90
14097;DHT22;7125;48.106;11.544;2023-12-07T11:02:06;1.80;99.90
14097;DHT22;7125;48.106;11.544;2023-12-07T11:04:35;1.80;99.90
14097;DHT22;7125;48.106;11.544;2023-12-07T11:07:06;1.90;99.90
14097;DHT22;7125;48.106;11.544;2023-12-07T11:09:39;1.90;99.90
14097;DHT22;7125;48.106;11.544;2023-12-07T11:12:15;1.90;99.90
14097;DHT22;7125;48.106;11.544;2023-12-07T11:14:45;1.90;99.90
14097;DHT22;7125;48.106;11.544;2023-12-07T11:17:14;1.90;99.90
14097;DHT22;7125;48.106;11.544;2023-12-07T11:19:46;1.90;99.90
14097;DHT22;7125;48.106;11.544;2023-12-07T11:22:14;1.90;99.90
14097;DHT22;7125;48.106;11.544;2023-12-07T11:24:54;1.90;99.90
14097;DHT22;7125;48.106;11.544;2023-12-07T11:27:24;2.00;99.90
14097;DHT22;7125;48.106;11.544;2023-12-07T11:29:53;2.00;99.90
14097;DHT22;7125;48.106;11.544;2023-12-07T11:32:21;2.10;99.90
14097;DHT22;7125;48.106;11.544;2023-12-07T11:34:49;2.20;99.90
14097;DHT22;7125;48.106;11.544;2023-12-07T11:37:17;2.20;99.90
14097;DHT22;7125;48.106;11.544;2023-12-07T11:39:44;2.20;99.90
14097;DHT22;7125;48.106;11.544;2023-12-07T11:42:14;2.20;99.90
14097;DHT22;7125;48.106;11.544;2023-12-07T11:44:43;2.20;99.90
14097;DHT22;7125;48.106;11.544;2023-12-07T11:47:16;2.30;99.90
14097;DHT22;7125;48.106;11.544;2023-12-07T11:49:44;2.30;99.90
14097;DHT22;7125;48.106;11.544;2023-12-07T11:52:15;2.30;99.90
14097;DHT22;7125;48.106;11.544;2023-12-07T11:54:46;2.30;99.90
14097;DHT22;7125;48.106;11.544;2023-12-07T11:57:14;2.30;99.90
14097;DHT22;7125;48.106;11.544;2023-12-07T11:59:42;2.40;99.90
14097;DHT22;7125;48.106;11.544;2023-12-07T12:02:10;2.40;99.90
14097;DHT22;7125;48.106;11.544;2023-12-07T12:04:40;2.50;99.90
14097;DHT22;7125;48.106;11.544;2023-12-07T12:07:07;2.50;99.90
14097;DHT22;7125;48.106;11.544;2023-12-07T12:09:34;2.60;99.90
14097;DHT22;7125;48.106;11.544;2023-12-07T12:12:02;2.60;99.90
14097;DHT22;7125;48.106;11.544;2023-12-07T12:14:30;2.70;99.90
14097;DHT22;7125;48.106;11.544;2023-12-07T12:16:57;2.60;99.90
14097;DHT22;7125;48.106;11.544;2023-12-07T12:19:25;2.60;99.90
14097;DHT22;7125;48.106;11.544;2023-12-07T12:21:56;2.70;99.90
14097;DHT22;7125;48.106;11.544;2023-12-07T12:24:23;2.70;99.90
14097;DHT22;7125;48.106;11.544;2023-12-07T12:26:51;2.70;99.90
14097;DHT22;7125;48.106;11.544;2023-12-07T12:29:18;2.70;99.90
14097;DHT22;7125;48.106;11.544;2023-12-07T12:31:45;2.70;99.90
14097;DHT22;7125;48.106;11.544;2023-12-07T12:34:12;2.70;99.90
14097;DHT22;7125;48.106;11.544;2023-12-07T12:36:40;2.70;99.90
14097;DHT22;7125;48.106;11.544;2023-12-07T12:39:08;2.70;99.90
14097;DHT22;7125;48.106;11.544;2023-12-07T12:41:38;2.70;99.90
14097;DHT22;7125;48.106;11.544;2023-12-07T12:44:05;2.70;99.90
14097;DHT22;7125;48.106;11.544;2023-12-07T12:46:34;2.70;99.90
14097;DHT22;7125;48.106;11.544;2023-12-07T12:49:03;2.70;99.90
14097;DHT22;7125;48.106;11.544;2023-12-07T12:51:30;2.70;99.90
14097;DHT22;7125;48.106;11.544;2023-12-07T12:53:59;2.70;99.90
14097;DHT22;7125;48.106;11.544;2023-12-07T12:56:29;2.70;99.90
14097;DHT22;7125;48.106;11.544;2023-12-07T12:58:56;2.70;99.90
14097;DHT22;7125;48.106;11.544;2023-12-07T13:01:24;2.60;99.90
14097;DHT22;7125;48.106;11.544;2023-12-07T13:03:51;2.60;99.90
14097;DHT22;7125;48.106;11.544;2023-12-07T13:06:19;2.60;99.90
14097;DHT22;7125;48.106;11.544;2023-12-07T13:08:47;2.60;99.90
14097;DHT22;7125;48.106;11.544;2023-12-07T13:11:15;2.60;99.90
14097;DHT22;7125;48.106;11.544;2023-12-07T13:13:44;2.60;99.90
14097;DHT22;7125;48.106;11.544;2023-12-07T13:16:13;2.60;99.90
14097;DHT22;7125;48.106;11.544;2023-12-07T13:18:40;2.60;99.90
14097;DHT22;7125;48.106;11.544;2023-12-07T13:21:07;2.60;99.90
14097;DHT22;7125;48.106;11.544;2023-12-07T13:23:36;2.60;99.90
14097;DHT22;7125;48.106;11.544;2023-12-07T13:26:03;2.60;99.90
14097;DHT22;7125;48.106;11.544;2023-12-07T13:28:32;2.60;99.90
14097;DHT22;7125;48.106;11.544;2023-12-07T13:31:00;2.60;99.90
14097;DHT22;7125;48.106;11.544;2023-12-07T13:33:28;2.50;99.90
14097;DHT22;7125;48.106;11.544;2023-12-07T13:35:55;2.50;99.90
14097;DHT22;7125;48.106;11.544;2023-12-07T13:38:22;2.50;99.90
14097;DHT22;7125;48.106;11.544;2023-12-07T13:40:49;2.50;99.90
14097;DHT22;7125;48.106;11.544;2023-12-07T13:43:16;2.40;99.90
14097;DHT22;7125;48.106;11.544;2023-12-07T13:45:43;2.40;99.90
14097;DHT22;7125;48.106;11.544;2023-12-07T13:48:14;2.40;99.90
14097;DHT22;7125;48.106;11.544;2023-12-07T13:50:42;2.40;99.90
14097;DHT22;7125;48.106;11.544;2023-12-07T13:53:10;2.30;99.90
14097;DHT22;7125;48.106;11.544;2023-12-07T13:55:38;2.30;99.90
14097;DHT22;7125;48.106;11.544;2023-12-07T13:58:05;2.40;99.90
14097;DHT22;7125;48.106;11.544;2023-12-07T14:00:32;2.30;99.90
14097;DHT22;7125;48.106;11.544;2023-12-07T14:03:00;2.30;99.90
14097;DHT22;7125;48.106;11.544;2023-12-07T14:05:28;2.20;99.90
14097;DHT22;7125;48.106;11.544;2023-12-07T14:07:55;2.30;99.90
14097;DHT22;7125;48.106;11.544;2023-12-07T14:10:23;2.40;99.90
14097;DHT22;7125;48.106;11.544;2023-12-07T14:12:50;2.40;99.90
14097;DHT22;7125;48.106;11.544;2023-12-07T14:15:18;2.40;99.90
14097;DHT22;7125;48.106;11.544;2023-12-07T14:17:45;2.40;99.90
14097;DHT22;7125;48.106;11.544;2023-12-07T14:20:13;2.30;99.90
14097;DHT22;7125;48.106;11.544;2023-12-07T14:22:41;2.20;99.90
14097;DHT22;7125;48.106;11.544;2023-12-07T14:25:09;2.10;99.90
14097;DHT22;7125;48.106;11.544;2023-12-07T14:27:37;2.00;99.90
14097;DHT22;7125;48.106;11.544;2023-12-07T14:30:05;1.90;99.90
14097;DHT22;7125;48.106;11.544;2023-12-07T14:32:32;1.80;99.90
14097;DHT22;7125;48.106;11.544;2023-12-07T14:34:59;1.70;99.90
14097;DHT22;7125;48.106;11.544;2023-12-07T14:37:26;1.60;99.90
14097;DHT22;7125;48.106;11.544;2023-12-07T14:39:56;1.50;99.90
14097;DHT22;7125;48.106;11.544;2023-12-07T14:42:23;1.40;99.90
14097;DHT22;7125;48.106;11.544;2023-12-07T14:44:50;1.30;99.90
14097;DHT22;7125;48.106;11.544;2023-12-07T14:47:17;1.20;99.90
14097;DHT22;7125;48.106;11.544;2023-12-07T14:49:44;1.00;99.90
14097;DHT22;7125;48.106;11.544;2023-12-07T14:52:12;0.90;99.90
14097;DHT22;7125;48.106;11.544;2023-12-07T14:54:39;0.80;99.90
14097;DHT22;7125;48.106;11.544;2023-12-07T14:57:08;0.80;99.90
14097;DHT22;7125;48.106;11.544;2023-12-07T14:59:35;0.60;99.90
14097;DHT22;7125;48.106;11.544;2023-12-07T15:02:03;0.60;99.90
14097;DHT22;7125;48.106;11.544;2023-12-07T15:04:30;0.50;99.90
14097;DHT22;7125;48.106;11.544;2023-12-07T15:06:58;0.40;99.90
14097;DHT22;7125;48.106;11.544;2023-12-07T15:09:25;0.40;99.90
14097;DHT22;7125;48.106;11.544;2023-12-07T15:11:52;0.30;99.90
14097;DHT22;7125;48.106;11.544;2023-12-07T15:14:21;0.20;99.90
14097;DHT22;7125;48.106;11.544;2023-12-07T15:16:49;0.20;99.90
14097;DHT22;7125;48.106;11.544;2023-12-07T15:19:17;0.10;99.90
14097;DHT22;7125;48.106;11.544;2023-12-07T15:21:44;0.00;99.90
14097;DHT22;7125;48.106;11.544;2023-12-07T15:24:11;0.00;99.90
14097;DHT22;7125;48.106;11.544;2023-12-07T15:26:41;-0.10;99.90
14097;DHT22;7125;48.106;11.544;2023-12-07T15:29:08;-0.20;99.90
14097;DHT22;7125;48.106;11.544;2023-12-07T15:31:40;-0.30;99.90
14097;DHT22;7125;48.106;11.544;2023-12-07T15:34:07;-0.40;99.90
14097;DHT22;7125;48.106;11.544;2023-12-07T15:36:35;-0.40;99.90
14097;DHT22;7125;48.106;11.544;2023-12-07T15:39:03;-0.50;99.90
14097;DHT22;7125;48.106;11.544;2023-12-07T15:41:30;-0.60;99.90
14097;DHT22;7125;48.106;11.544;2023-12-07T15:43:58;-0.60;99.90